sensor_id;sensor_type;location;lat;lon;timestamp;pressure;altitude;pressure_sealevel;temperature;humidity
75617;BME280;64200;55.426;37.758;2022-10-16T00:00:40;100548.69;;;3.60;66.54
75617;BME280;64200;55.426;37.758;2022-10-16T00:05:43;100558.94;;;3.56;66.55
75617;BME280;64200;55.426;37.758;2022-10-16T00:10:45;100547.91;;;3.45;66.70
75617;BME280;64200;55.426;37.758;2022-10-16T00:15:46;100551.84;;;3.44;67.08
75617;BME280;64200;55.426;37.758;2022-10-16T00:20:46;100561.28;;;3.43;66.87
75617;BME280;64200;55.426;37.758;2022-10-16T00:25:58;100570.34;;;3.40;67.20
75617;BME280;64200;55.426;37.758;2022-10-16T00:31:02;100555.81;;;3.29;67.42
75617;BME280;64200;55.426;37.758;2022-10-16T00:36:04;100563.28;;;3.25;67.77
75617;BME280;64200;55.426;37.758;2022-10-16T00:41:06;100561.69;;;3.24;67.98
75617;BME280;64200;55.426;37.758;2022-10-16T00:51:39;100564.06;;;3.22;67.51
75617;BME280;64200;55.426;37.758;2022-10-16T00:56:41;100564.03;;;3.18;67.90
75617;BME280;64200;55.426;37.758;2022-10-16T01:01:42;100565.25;;;3.10;68.09
75617;BME280;64200;55.426;37.758;2022-10-16T01:12:10;100586.09;;;3.14;67.90
75617;BME280;64200;55.426;37.758;2022-10-16T01:17:17;100586.47;;;3.09;67.99
75617;BME280;64200;55.426;37.758;2022-10-16T01:22:20;100586.88;;;2.97;68.74
75617;BME280;64200;55.426;37.758;2022-10-16T01:27:29;100591.19;;;2.94;68.65
75617;BME280;64200;55.426;37.758;2022-10-16T01:32:42;100585.25;;;2.85;68.46
75617;BME280;64200;55.426;37.758;2022-10-16T01:43:03;100603.38;;;2.86;68.97
75617;BME280;64200;55.426;37.758;2022-10-16T01:48:06;100601.78;;;2.85;68.78
75617;BME280;64200;55.426;37.758;2022-10-16T01:53:12;100602.97;;;2.80;68.92
75617;BME280;64200;55.426;37.758;2022-10-16T01:58:15;100605.34;;;2.82;68.46
75617;BME280;64200;55.426;37.758;2022-10-16T02:03:18;100602.16;;;2.76;68.50
75617;BME280;64200;55.426;37.758;2022-10-16T02:08:22;100614.34;;;2.75;68.83
75617;BME280;64200;55.426;37.758;2022-10-16T02:13:48;100613.97;;;2.73;69.12
75617;BME280;64200;55.426;37.758;2022-10-16T02:18:51;100606.47;;;2.67;69.45
75617;BME280;64200;55.426;37.758;2022-10-16T02:29:06;100616.28;;;2.68;69.64
75617;BME280;64200;55.426;37.758;2022-10-16T02:34:09;100594.59;;;2.48;69.61
75617;BME280;64200;55.426;37.758;2022-10-16T02:39:13;100609.16;;;2.56;69.85
75617;BME280;64200;55.426;37.758;2022-10-16T02:44:14;100619.03;;;2.53;68.95
75617;BME280;64200;55.426;37.758;2022-10-16T02:49:15;100612.66;;;2.45;69.59
75617;BME280;64200;55.426;37.758;2022-10-16T02:54:15;100618.16;;;2.42;70.40
75617;BME280;64200;55.426;37.758;2022-10-16T02:59:16;100622.88;;;2.38;70.19
75617;BME280;64200;55.426;37.758;2022-10-16T03:04:17;100618.91;;;2.32;69.94
75617;BME280;64200;55.426;37.758;2022-10-16T03:09:17;100625.56;;;2.27;70.14
75617;BME280;64200;55.426;37.758;2022-10-16T03:14:18;100625.97;;;2.25;70.62
75617;BME280;64200;55.426;37.758;2022-10-16T03:19:18;100623.16;;;2.18;71.09
75617;BME280;64200;55.426;37.758;2022-10-16T03:24:19;100634.16;;;2.18;70.90
75617;BME280;64200;55.426;37.758;2022-10-16T03:29:20;100635.31;;;2.14;71.02
75617;BME280;64200;55.426;37.758;2022-10-16T03:34:20;100630.56;;;2.07;70.49
75617;BME280;64200;55.426;37.758;2022-10-16T03:39:21;100641.94;;;2.05;71.26
75617;BME280;64200;55.426;37.758;2022-10-16T03:44:21;100635.66;;;2.05;70.77
75617;BME280;64200;55.426;37.758;2022-10-16T03:49:22;100638.75;;;2.00;71.62
75617;BME280;64200;55.426;37.758;2022-10-16T03:54:23;100645.03;;;1.97;71.09
75617;BME280;64200;55.426;37.758;2022-10-16T03:59:23;100634.72;;;1.83;71.54
75617;BME280;64200;55.426;37.758;2022-10-16T04:04:24;100636.72;;;1.86;71.59
75617;BME280;64200;55.426;37.758;2022-10-16T04:09:25;100643.34;;;1.81;71.83
75617;BME280;64200;55.426;37.758;2022-10-16T04:14:26;100648.84;;;1.81;71.45
75617;BME280;64200;55.426;37.758;2022-10-16T04:19:26;100654.31;;;1.78;72.19
75617;BME280;64200;55.426;37.758;2022-10-16T04:24:27;100650.47;;;1.86;72.13
75617;BME280;64200;55.426;37.758;2022-10-16T04:29:28;100652.06;;;1.87;71.83
75617;BME280;64200;55.426;37.758;2022-10-16T04:34:28;100652.50;;;1.92;72.05
75617;BME280;64200;55.426;37.758;2022-10-16T04:39:29;100630.81;;;1.84;71.75
75617;BME280;64200;55.426;37.758;2022-10-16T04:44:29;100659.59;;;1.97;71.26
75617;BME280;64200;55.426;37.758;2022-10-16T04:49:30;100652.13;;;1.98;71.46
75617;BME280;64200;55.426;37.758;2022-10-16T04:54:31;100668.31;;;2.06;71.45
75617;BME280;64200;55.426;37.758;2022-10-16T04:59:31;100666.78;;;2.13;70.91
75617;BME280;64200;55.426;37.758;2022-10-16T05:04:32;100664.84;;;2.17;70.83
75617;BME280;64200;55.426;37.758;2022-10-16T05:09:32;100666.81;;;2.16;70.61
75617;BME280;64200;55.426;37.758;2022-10-16T05:14:33;100674.69;;;2.25;71.15
75617;BME280;64200;55.426;37.758;2022-10-16T05:19:34;100676.34;;;2.37;70.96
75617;BME280;64200;55.426;37.758;2022-10-16T05:24:35;100674.44;;;2.44;70.58
75617;BME280;64200;55.426;37.758;2022-10-16T05:29:35;100686.38;;;2.74;70.11
75617;BME280;64200;55.426;37.758;2022-10-16T05:34:36;100684.84;;;2.84;69.65
75617;BME280;64200;55.426;37.758;2022-10-16T05:39:38;100696.75;;;3.06;69.82
75617;BME280;64200;55.426;37.758;2022-10-16T05:44:38;100697.66;;;3.53;68.63
75617;BME280;64200;55.426;37.758;2022-10-16T05:49:39;100699.25;;;4.15;67.84
75617;BME280;64200;55.426;37.758;2022-10-16T05:54:39;100694.06;;;4.53;67.02
75617;BME280;64200;55.426;37.758;2022-10-16T05:59:40;100714.41;;;5.03;65.14
75617;BME280;64200;55.426;37.758;2022-10-16T06:04:41;100711.06;;;5.37;63.82
75617;BME280;64200;55.426;37.758;2022-10-16T06:09:41;100706.44;;;5.83;62.41
75617;BME280;64200;55.426;37.758;2022-10-16T06:14:42;100725.88;;;6.28;61.56
75617;BME280;64200;55.426;37.758;2022-10-16T06:19:42;100725.50;;;6.64;62.19
75617;BME280;64200;55.426;37.758;2022-10-16T06:24:43;100720.34;;;7.31;60.14
75617;BME280;64200;55.426;37.758;2022-10-16T06:29:44;100716.09;;;7.78;58.58
75617;BME280;64200;55.426;37.758;2022-10-16T06:34:45;100713.09;;;8.39;55.38
75617;BME280;64200;55.426;37.758;2022-10-16T06:39:46;100722.44;;;8.53;55.86
75617;BME280;64200;55.426;37.758;2022-10-16T06:44:46;100729.06;;;8.99;54.63
75617;BME280;64200;55.426;37.758;2022-10-16T06:49:47;100718.59;;;9.43;51.93
75617;BME280;64200;55.426;37.758;2022-10-16T06:54:47;100736.66;;;10.21;52.71
75617;BME280;64200;55.426;37.758;2022-10-16T06:59:48;100733.78;;;10.87;49.81
75617;BME280;64200;55.426;37.758;2022-10-16T07:04:49;100726.28;;;11.65;49.38
75617;BME280;64200;55.426;37.758;2022-10-16T07:09:49;100740.31;;;12.38;47.55
75617;BME280;64200;55.426;37.758;2022-10-16T07:14:50;100747.66;;;13.46;46.10
75617;BME280;64200;55.426;37.758;2022-10-16T07:19:52;100744.81;;;14.28;43.28
75617;BME280;64200;55.426;37.758;2022-10-16T07:24:53;100746.56;;;15.08;41.67
75617;BME280;64200;55.426;37.758;2022-10-16T07:29:54;100757.31;;;15.71;40.02
75617;BME280;64200;55.426;37.758;2022-10-16T07:34:55;100758.25;;;16.59;39.43
75617;BME280;64200;55.426;37.758;2022-10-16T07:39:56;100760.34;;;17.28;36.84
75617;BME280;64200;55.426;37.758;2022-10-16T07:44:56;100764.19;;;18.46;36.68
75617;BME280;64200;55.426;37.758;2022-10-16T07:49:57;100766.34;;;18.98;33.55
75617;BME280;64200;55.426;37.758;2022-10-16T07:54:57;100761.31;;;19.72;32.99
75617;BME280;64200;55.426;37.758;2022-10-16T07:59:58;100763.50;;;20.86;30.36
75617;BME280;64200;55.426;37.758;2022-10-16T08:04:58;100759.34;;;20.70;29.08
75617;BME280;64200;55.426;37.758;2022-10-16T08:09:59;100764.72;;;20.68;28.98
75617;BME280;64200;55.426;37.758;2022-10-16T08:15:00;100765.06;;;18.99;28.96
75617;BME280;64200;55.426;37.758;2022-10-16T08:20:01;100765.25;;;20.17;28.74
75617;BME280;64200;55.426;37.758;2022-10-16T08:25:02;100771.50;;;22.35;28.04
75617;BME280;64200;55.426;37.758;2022-10-16T08:30:03;100761.88;;;22.55;25.56
75617;BME280;64200;55.426;37.758;2022-10-16T08:35:04;100753.75;;;22.76;25.32
75617;BME280;64200;55.426;37.758;2022-10-16T08:40:07;100763.84;;;21.84;24.87
75617;BME280;64200;55.426;37.758;2022-10-16T08:50:26;100747.50;;;23.55;24.21
75617;BME280;64200;55.426;37.758;2022-10-16T09:00:35;100754.13;;;24.68;22.45
75617;BME280;64200;55.426;37.758;2022-10-16T09:11:26;100755.44;;;25.37;22.02
75617;BME280;64200;55.426;37.758;2022-10-16T09:16:34;100759.66;;;24.98;21.76
75617;BME280;64200;55.426;37.758;2022-10-16T09:21:46;100773.50;;;23.76;21.24
75617;BME280;64200;55.426;37.758;2022-10-16T09:26:48;100762.31;;;24.52;20.69
75617;BME280;64200;55.426;37.758;2022-10-16T09:31:48;100758.44;;;25.45;20.23
75617;BME280;64200;55.426;37.758;2022-10-16T09:36:49;100751.34;;;25.33;21.85
75617;BME280;64200;55.426;37.758;2022-10-16T09:41:51;100775.00;;;26.86;17.93
75617;BME280;64200;55.426;37.758;2022-10-16T09:52:14;100748.63;;;23.77;20.55
75617;BME280;64200;55.426;37.758;2022-10-16T09:57:15;100761.47;;;24.58;20.44
75617;BME280;64200;55.426;37.758;2022-10-16T10:02:23;100753.41;;;23.93;20.77
75617;BME280;64200;55.426;37.758;2022-10-16T10:07:38;100751.22;;;23.14;21.83
75617;BME280;64200;55.426;37.758;2022-10-16T10:12:40;100741.59;;;26.14;21.67
75617;BME280;64200;55.426;37.758;2022-10-16T10:17:47;100751.84;;;25.50;19.58
75617;BME280;64200;55.426;37.758;2022-10-16T10:22:48;100734.81;;;27.76;19.00
75617;BME280;64200;55.426;37.758;2022-10-16T10:33:24;100750.97;;;24.47;20.12
75617;BME280;64200;55.426;37.758;2022-10-16T11:00:16;100730.53;;;29.47;16.98
75617;BME280;64200;55.426;37.758;2022-10-16T11:05:36;100731.34;;;30.34;16.20
75617;BME280;64200;55.426;37.758;2022-10-16T11:11:23;100725.06;;;30.12;15.33
75617;BME280;64200;55.426;37.758;2022-10-16T11:16:35;100716.34;;;29.64;16.62
75617;BME280;64200;55.426;37.758;2022-10-16T11:21:44;100717.44;;;29.15;15.68
75617;BME280;64200;55.426;37.758;2022-10-16T11:26:52;100707.78;;;27.01;17.85
75617;BME280;64200;55.426;37.758;2022-10-16T11:31:58;100706.94;;;29.25;16.33
75617;BME280;64200;55.426;37.758;2022-10-16T11:37:08;100701.34;;;28.88;16.46
75617;BME280;64200;55.426;37.758;2022-10-16T11:42:23;100706.41;;;30.29;15.10
75617;BME280;64200;55.426;37.758;2022-10-16T11:47:51;100699.22;;;32.22;14.68
75617;BME280;64200;55.426;37.758;2022-10-16T11:52:59;100685.56;;;31.45;14.24
75617;BME280;64200;55.426;37.758;2022-10-16T11:58:12;100683.47;;;30.54;15.03
75617;BME280;64200;55.426;37.758;2022-10-16T12:08:15;100688.94;;;29.55;15.77
75617;BME280;64200;55.426;37.758;2022-10-16T12:13:37;100679.16;;;28.00;16.55
75617;BME280;64200;55.426;37.758;2022-10-16T12:18:40;100677.28;;;26.90;18.13
75617;BME280;64200;55.426;37.758;2022-10-16T12:23:58;100675.69;;;28.31;17.40
75617;BME280;64200;55.426;37.758;2022-10-16T12:34:38;100679.91;;;28.37;16.43
75617;BME280;64200;55.426;37.758;2022-10-16T12:39:41;100674.47;;;27.61;17.10
75617;BME280;64200;55.426;37.758;2022-10-16T12:44:41;100661.66;;;26.70;17.05
75617;BME280;64200;55.426;37.758;2022-10-16T12:49:49;100648.13;;;25.42;18.37
75617;BME280;64200;55.426;37.758;2022-10-16T12:54:51;100657.84;;;27.59;17.75
75617;BME280;64200;55.426;37.758;2022-10-16T13:00:13;100657.28;;;26.07;17.85
75617;BME280;64200;55.426;37.758;2022-10-16T13:27:41;100641.78;;;15.17;31.50
75617;BME280;64200;55.426;37.758;2022-10-16T13:32:50;100629.25;;;14.75;32.92
75617;BME280;64200;55.426;37.758;2022-10-16T13:38:22;100646.56;;;14.92;32.49
75617;BME280;64200;55.426;37.758;2022-10-16T13:43:35;100643.94;;;14.24;33.91
75617;BME280;64200;55.426;37.758;2022-10-16T13:48:36;100646.56;;;13.81;34.51
75617;BME280;64200;55.426;37.758;2022-10-16T13:53:37;100640.31;;;13.96;33.79
75617;BME280;64200;55.426;37.758;2022-10-16T13:58:42;100641.59;;;13.95;34.33
75617;BME280;64200;55.426;37.758;2022-10-16T14:03:43;100643.97;;;13.56;35.26
75617;BME280;64200;55.426;37.758;2022-10-16T14:08:46;100643.78;;;13.09;36.14
75617;BME280;64200;55.426;37.758;2022-10-16T14:13:49;100643.31;;;12.57;37.61
75617;BME280;64200;55.426;37.758;2022-10-16T14:18:56;100633.16;;;12.51;37.42
75617;BME280;64200;55.426;37.758;2022-10-16T14:23:58;100636.78;;;12.16;38.72
75617;BME280;64200;55.426;37.758;2022-10-16T14:29:25;100641.88;;;11.95;38.82
75617;BME280;64200;55.426;37.758;2022-10-16T14:34:37;100640.41;;;11.78;40.49
75617;BME280;64200;55.426;37.758;2022-10-16T14:39:40;100637.66;;;11.52;40.45
75617;BME280;64200;55.426;37.758;2022-10-16T14:44:41;100634.91;;;11.27;40.39
75617;BME280;64200;55.426;37.758;2022-10-16T14:49:43;100638.34;;;11.18;41.67
75617;BME280;64200;55.426;37.758;2022-10-16T14:54:48;100638.88;;;11.00;40.17
75617;BME280;64200;55.426;37.758;2022-10-16T14:59:48;100634.84;;;10.88;40.89
75617;BME280;64200;55.426;37.758;2022-10-16T15:04:51;100632.72;;;10.79;41.04
75617;BME280;64200;55.426;37.758;2022-10-16T15:09:52;100633.03;;;10.68;41.20
75617;BME280;64200;55.426;37.758;2022-10-16T15:14:53;100640.13;;;10.57;41.54
75617;BME280;64200;55.426;37.758;2022-10-16T15:19:53;100644.69;;;10.50;42.05
75617;BME280;64200;55.426;37.758;2022-10-16T15:24:55;100643.31;;;10.26;43.12
75617;BME280;64200;55.426;37.758;2022-10-16T15:29:56;100639.22;;;10.01;43.98
75617;BME280;64200;55.426;37.758;2022-10-16T15:34:56;100634.16;;;9.96;43.37
75617;BME280;64200;55.426;37.758;2022-10-16T15:39:57;100636.97;;;9.79;45.10
75617;BME280;64200;55.426;37.758;2022-10-16T15:44:57;100636.53;;;9.64;44.72
75617;BME280;64200;55.426;37.758;2022-10-16T15:49:58;100624.88;;;9.53;44.88
75617;BME280;64200;55.426;37.758;2022-10-16T15:54:58;100633.38;;;9.46;44.79
75617;BME280;64200;55.426;37.758;2022-10-16T15:59:59;100633.47;;;9.42;46.32
75617;BME280;64200;55.426;37.758;2022-10-16T16:05:00;100637.81;;;9.27;45.87
75617;BME280;64200;55.426;37.758;2022-10-16T16:10:05;100625.97;;;9.23;46.05
75617;BME280;64200;55.426;37.758;2022-10-16T16:15:07;100627.25;;;9.02;46.65
75617;BME280;64200;55.426;37.758;2022-10-16T16:20:09;100632.16;;;8.94;46.69
75617;BME280;64200;55.426;37.758;2022-10-16T16:25:10;100638.97;;;8.93;46.27
75617;BME280;64200;55.426;37.758;2022-10-16T16:30:11;100623.06;;;8.73;49.13
75617;BME280;64200;55.426;37.758;2022-10-16T16:35:12;100618.03;;;8.68;47.07
75617;BME280;64200;55.426;37.758;2022-10-16T16:40:12;100620.50;;;8.63;48.08
75617;BME280;64200;55.426;37.758;2022-10-16T16:45:13;100615.53;;;8.54;48.41
75617;BME280;64200;55.426;37.758;2022-10-16T16:50:14;100616.00;;;8.29;50.14
75617;BME280;64200;55.426;37.758;2022-10-16T16:55:14;100626.97;;;8.16;50.07
75617;BME280;64200;55.426;37.758;2022-10-16T17:00:15;100632.34;;;8.03;50.74
75617;BME280;64200;55.426;37.758;2022-10-16T17:05:17;100633.63;;;7.98;50.00
75617;BME280;64200;55.426;37.758;2022-10-16T17:10:18;100639.63;;;7.97;50.66
75617;BME280;64200;55.426;37.758;2022-10-16T17:15:19;100639.84;;;7.82;50.31
75617;BME280;64200;55.426;37.758;2022-10-16T17:20:19;100646.25;;;7.79;50.91
75617;BME280;64200;55.426;37.758;2022-10-16T17:25:20;100639.72;;;7.66;51.11
75617;BME280;64200;55.426;37.758;2022-10-16T17:30:23;100645.84;;;7.53;51.84
75617;BME280;64200;55.426;37.758;2022-10-16T17:35:24;100633.97;;;7.53;51.69
75617;BME280;64200;55.426;37.758;2022-10-16T17:40:24;100636.19;;;7.38;52.24
75617;BME280;64200;55.426;37.758;2022-10-16T17:45:25;100637.47;;;7.30;52.52
75617;BME280;64200;55.426;37.758;2022-10-16T17:50:26;100634.47;;;7.20;52.25
75617;BME280;64200;55.426;37.758;2022-10-16T17:55:27;100634.13;;;7.15;52.64
75617;BME280;64200;55.426;37.758;2022-10-16T18:00:27;100646.03;;;7.15;52.47
75617;BME280;64200;55.426;37.758;2022-10-16T18:05:28;100646.50;;;7.10;52.38
75617;BME280;64200;55.426;37.758;2022-10-16T18:10:29;100649.75;;;7.05;52.86
75617;BME280;64200;55.426;37.758;2022-10-16T18:15:30;100644.28;;;6.98;53.54
75617;BME280;64200;55.426;37.758;2022-10-16T18:20:31;100638.41;;;6.92;53.91
75617;BME280;64200;55.426;37.758;2022-10-16T18:25:32;100639.31;;;6.85;53.52
75617;BME280;64200;55.426;37.758;2022-10-16T18:30:32;100644.19;;;6.74;54.22
75617;BME280;64200;55.426;37.758;2022-10-16T18:35:36;100638.72;;;6.67;54.67
75617;BME280;64200;55.426;37.758;2022-10-16T18:40:37;100641.91;;;6.65;54.40
75617;BME280;64200;55.426;37.758;2022-10-16T18:45:38;100646.78;;;6.58;54.53
75617;BME280;64200;55.426;37.758;2022-10-16T18:50:38;100640.94;;;6.48;55.19
75617;BME280;64200;55.426;37.758;2022-10-16T18:55:39;100631.81;;;6.48;54.74
75617;BME280;64200;55.426;37.758;2022-10-16T19:00:39;100625.16;;;6.42;54.91
75617;BME280;64200;55.426;37.758;2022-10-16T19:05:40;100634.31;;;6.39;55.06
75617;BME280;64200;55.426;37.758;2022-10-16T19:10:41;100631.53;;;6.39;54.67
75617;BME280;64200;55.426;37.758;2022-10-16T19:15:42;100627.31;;;6.27;55.79
75617;BME280;64200;55.426;37.758;2022-10-16T19:20:42;100632.94;;;6.20;55.71
75617;BME280;64200;55.426;37.758;2022-10-16T19:25:43;100628.34;;;6.06;56.24
75617;BME280;64200;55.426;37.758;2022-10-16T19:30:44;100629.16;;;5.99;56.36
75617;BME280;64200;55.426;37.758;2022-10-16T19:35:45;100627.66;;;5.91;56.81
75617;BME280;64200;55.426;37.758;2022-10-16T19:40:46;100629.59;;;5.97;57.36
75617;BME280;64200;55.426;37.758;2022-10-16T19:45:46;100626.81;;;5.97;56.98
75617;BME280;64200;55.426;37.758;2022-10-16T19:50:47;100624.50;;;5.89;57.04
75617;BME280;64200;55.426;37.758;2022-10-16T19:55:48;100594.91;;;5.78;57.24
75617;BME280;64200;55.426;37.758;2022-10-16T20:00:49;100610.75;;;5.78;57.30
75617;BME280;64200;55.426;37.758;2022-10-16T20:05:53;100618.94;;;5.89;57.22
75617;BME280;64200;55.426;37.758;2022-10-16T20:10:54;100624.53;;;5.85;57.17
75617;BME280;64200;55.426;37.758;2022-10-16T20:15:55;100625.72;;;5.84;57.80
75617;BME280;64200;55.426;37.758;2022-10-16T20:20:56;100631.25;;;5.84;57.76
75617;BME280;64200;55.426;37.758;2022-10-16T20:25:59;100610.72;;;5.81;57.44
75617;BME280;64200;55.426;37.758;2022-10-16T20:31:05;100615.81;;;5.87;57.75
75617;BME280;64200;55.426;37.758;2022-10-16T20:36:13;100615.06;;;5.83;57.24
75617;BME280;64200;55.426;37.758;2022-10-16T20:41:15;100625.81;;;5.73;58.18
75617;BME280;64200;55.426;37.758;2022-10-16T20:46:20;100623.06;;;5.73;57.80
75617;BME280;64200;55.426;37.758;2022-10-16T20:51:28;100617.16;;;5.68;58.29
75617;BME280;64200;55.426;37.758;2022-10-16T20:56:31;100614.91;;;5.55;58.93
75617;BME280;64200;55.426;37.758;2022-10-16T21:01:33;100623.16;;;5.59;59.13
75617;BME280;64200;55.426;37.758;2022-10-16T21:06:37;100612.88;;;5.59;58.71
75617;BME280;64200;55.426;37.758;2022-10-16T21:11:39;100610.91;;;5.56;58.65
75617;BME280;64200;55.426;37.758;2022-10-16T21:16:39;100610.19;;;5.52;59.19
75617;BME280;64200;55.426;37.758;2022-10-16T21:21:40;100599.13;;;5.49;58.93
75617;BME280;64200;55.426;37.758;2022-10-16T21:26:41;100582.22;;;5.36;58.61
75617;BME280;64200;55.426;37.758;2022-10-16T21:31:42;100607.06;;;5.43;59.00
75617;BME280;64200;55.426;37.758;2022-10-16T21:36:42;100600.41;;;5.40;59.01
75617;BME280;64200;55.426;37.758;2022-10-16T21:41:45;100596.47;;;5.34;59.48
75617;BME280;64200;55.426;37.758;2022-10-16T21:46:46;100596.94;;;5.25;59.65
75617;BME280;64200;55.426;37.758;2022-10-16T21:51:49;100626.97;;;5.27;59.58
75617;BME280;64200;55.426;37.758;2022-10-16T21:56:50;100603.66;;;5.24;59.65
75617;BME280;64200;55.426;37.758;2022-10-16T22:01:52;100599.69;;;5.25;60.00
75617;BME280;64200;55.426;37.758;2022-10-16T22:06:53;100593.41;;;5.21;60.14
75617;BME280;64200;55.426;37.758;2022-10-16T22:11:53;100604.44;;;5.25;59.89
75617;BME280;64200;55.426;37.758;2022-10-16T22:16:56;100600.91;;;5.24;59.76
75617;BME280;64200;55.426;37.758;2022-10-16T22:21:56;100602.47;;;5.25;60.17
75617;BME280;64200;55.426;37.758;2022-10-16T22:26:58;100605.63;;;5.27;59.46
75617;BME280;64200;55.426;37.758;2022-10-16T22:31:58;100590.59;;;5.28;59.83
75617;BME280;64200;55.426;37.758;2022-10-16T22:36:59;100592.56;;;5.28;59.45
75617;BME280;64200;55.426;37.758;2022-10-16T22:42:00;100589.81;;;5.28;59.65
75617;BME280;64200;55.426;37.758;2022-10-16T22:47:01;100593.38;;;5.25;59.54
75617;BME280;64200;55.426;37.758;2022-10-16T22:52:02;100586.72;;;5.19;59.52
75617;BME280;64200;55.426;37.758;2022-10-16T22:57:02;100584.84;;;5.01;59.93
75617;BME280;64200;55.426;37.758;2022-10-16T23:02:03;100594.31;;;5.04;60.61
75617;BME280;64200;55.426;37.758;2022-10-16T23:07:04;100595.91;;;5.01;60.92
75617;BME280;64200;55.426;37.758;2022-10-16T23:12:04;100596.63;;;5.13;60.13
75617;BME280;64200;55.426;37.758;2022-10-16T23:17:05;100580.06;;;5.09;60.33
75617;BME280;64200;55.426;37.758;2022-10-16T23:22:05;100577.69;;;5.11;60.31
75617;BME280;64200;55.426;37.758;2022-10-16T23:27:06;100579.22;;;5.16;60.24
75617;BME280;64200;55.426;37.758;2022-10-16T23:32:07;100572.50;;;5.17;60.13
75617;BME280;64200;55.426;37.758;2022-10-16T23:37:07;100570.97;;;5.08;60.62
75617;BME280;64200;55.426;37.758;2022-10-16T23:42:08;100565.00;;;5.14;60.52
75617;BME280;64200;55.426;37.758;2022-10-16T23:47:08;100542.50;;;5.15;60.04
75617;BME280;64200;55.426;37.758;2022-10-16T23:52:09;100559.88;;;5.16;60.22
75617;BME280;64200;55.426;37.758;2022-10-16T23:57:10;100556.31;;;5.15;60.58
